sensor_id;sensor_type;location;lat;lon;timestamp;pressure;altitude;pressure_sealevel;temperature;humidity
8699;BME280;4386;51.236;6.742;2022-10-16T00:00:35;100680.50;;;15.47;87.63
8699;BME280;4386;51.236;6.742;2022-10-16T00:01:57;100686.81;;;15.46;87.45
8699;BME280;4386;51.236;6.742;2022-10-16T00:03:00;100685.97;;;15.45;87.51
8699;BME280;4386;51.236;6.742;2022-10-16T00:04:03;100694.81;;;15.46;87.31
8699;BME280;4386;51.236;6.742;2022-10-16T00:05:06;100693.13;;;15.45;87.48
8699;BME280;4386;51.236;6.742;2022-10-16T00:06:08;100688.81;;;15.44;87.34
8699;BME280;4386;51.236;6.742;2022-10-16T00:07:11;100690.63;;;15.43;87.48
8699;BME280;4386;51.236;6.742;2022-10-16T00:08:12;100695.13;;;15.43;87.40
8699;BME280;4386;51.236;6.742;2022-10-16T00:09:16;100690.78;;;15.42;87.38
8699;BME280;4386;51.236;6.742;2022-10-16T00:10:18;100692.47;;;15.43;87.53
8699;BME280;4386;51.236;6.742;2022-10-16T00:11:22;100684.59;;;15.41;87.78
8699;BME280;4386;51.236;6.742;2022-10-16T00:12:25;100685.44;;;15.42;87.51
8699;BME280;4386;51.236;6.742;2022-10-16T00:13:27;100691.78;;;15.41;87.29
8699;BME280;4386;51.236;6.742;2022-10-16T00:14:30;100692.75;;;15.40;87.44
8699;BME280;4386;51.236;6.742;2022-10-16T00:15:33;100695.44;;;15.40;87.34
8699;BME280;4386;51.236;6.742;2022-10-16T00:16:37;100696.41;;;15.39;87.38
8699;BME280;4386;51.236;6.742;2022-10-16T00:17:39;100698.41;;;15.37;87.28
8699;BME280;4386;51.236;6.742;2022-10-16T00:18:42;100706.41;;;15.37;87.40
8699;BME280;4386;51.236;6.742;2022-10-16T00:19:44;100708.25;;;15.36;87.39
8699;BME280;4386;51.236;6.742;2022-10-16T00:20:47;100712.75;;;15.36;87.49
8699;BME280;4386;51.236;6.742;2022-10-16T00:21:49;100706.56;;;15.35;87.24
8699;BME280;4386;51.236;6.742;2022-10-16T00:22:52;100707.56;;;15.34;87.47
8699;BME280;4386;51.236;6.742;2022-10-16T00:23:57;100704.06;;;15.34;87.35
8699;BME280;4386;51.236;6.742;2022-10-16T00:25:02;100713.03;;;15.33;87.24
8699;BME280;4386;51.236;6.742;2022-10-16T00:26:07;100704.19;;;15.32;87.22
8699;BME280;4386;51.236;6.742;2022-10-16T00:27:10;100703.34;;;15.32;87.41
8699;BME280;4386;51.236;6.742;2022-10-16T00:28:12;100701.69;;;15.31;87.47
8699;BME280;4386;51.236;6.742;2022-10-16T00:29:14;100707.03;;;15.31;87.30
8699;BME280;4386;51.236;6.742;2022-10-16T00:30:16;100707.88;;;15.31;87.42
8699;BME280;4386;51.236;6.742;2022-10-16T00:31:21;100704.34;;;15.31;87.18
8699;BME280;4386;51.236;6.742;2022-10-16T00:32:23;100701.81;;;15.29;87.44
8699;BME280;4386;51.236;6.742;2022-10-16T00:33:26;100696.47;;;15.29;87.08
8699;BME280;4386;51.236;6.742;2022-10-16T00:34:28;100699.16;;;15.29;87.17
8699;BME280;4386;51.236;6.742;2022-10-16T00:35:31;100691.31;;;15.28;87.33
8699;BME280;4386;51.236;6.742;2022-10-16T00:36:33;100693.13;;;15.27;87.42
8699;BME280;4386;51.236;6.742;2022-10-16T00:37:35;100702.13;;;15.26;87.41
8699;BME280;4386;51.236;6.742;2022-10-16T00:38:37;100697.63;;;15.27;87.45
8699;BME280;4386;51.236;6.742;2022-10-16T00:39:40;100689.75;;;15.25;87.39
8699;BME280;4386;51.236;6.742;2022-10-16T00:40:43;100688.94;;;15.25;87.29
8699;BME280;4386;51.236;6.742;2022-10-16T00:41:46;100693.44;;;15.24;87.25
8699;BME280;4386;51.236;6.742;2022-10-16T00:42:47;100697.09;;;15.23;87.41
8699;BME280;4386;51.236;6.742;2022-10-16T00:43:52;100697.09;;;15.23;87.18
8699;BME280;4386;51.236;6.742;2022-10-16T00:44:56;100696.25;;;15.23;87.48
8699;BME280;4386;51.236;6.742;2022-10-16T00:46:00;100691.06;;;15.21;87.29
8699;BME280;4386;51.236;6.742;2022-10-16T00:47:02;100692.91;;;15.21;87.31
8699;BME280;4386;51.236;6.742;2022-10-16T00:48:10;100697.38;;;15.20;87.49
8699;BME280;4386;51.236;6.742;2022-10-16T00:49:16;100685.88;;;15.20;87.27
8699;BME280;4386;51.236;6.742;2022-10-16T00:50:28;100687.84;;;15.18;87.35
8699;BME280;4386;51.236;6.742;2022-10-16T00:51:33;100687.84;;;15.18;87.49
8699;BME280;4386;51.236;6.742;2022-10-16T00:52:39;100686.16;;;15.17;87.26
8699;BME280;4386;51.236;6.742;2022-10-16T00:53:44;100680.84;;;15.17;87.39
8699;BME280;4386;51.236;6.742;2022-10-16T00:54:47;100683.63;;;15.15;87.27
8699;BME280;4386;51.236;6.742;2022-10-16T00:55:51;100684.47;;;15.16;87.26
8699;BME280;4386;51.236;6.742;2022-10-16T00:56:55;100675.78;;;15.13;87.23
8699;BME280;4386;51.236;6.742;2022-10-16T00:57:57;100680.16;;;15.15;87.46
8699;BME280;4386;51.236;6.742;2022-10-16T00:59:03;100693.50;;;15.15;87.37
8699;BME280;4386;51.236;6.742;2022-10-16T01:00:10;100691.81;;;15.13;87.28
8699;BME280;4386;51.236;6.742;2022-10-16T01:01:14;100682.97;;;15.13;87.36
8699;BME280;4386;51.236;6.742;2022-10-16T01:02:17;100689.13;;;15.13;87.37
8699;BME280;4386;51.236;6.742;2022-10-16T01:03:25;100684.78;;;15.12;87.32
8699;BME280;4386;51.236;6.742;2022-10-16T01:04:32;100683.13;;;15.11;87.51
8699;BME280;4386;51.236;6.742;2022-10-16T01:05:41;100681.44;;;15.10;87.39
8699;BME280;4386;51.236;6.742;2022-10-16T01:06:51;100681.44;;;15.10;87.46
8699;BME280;4386;51.236;6.742;2022-10-16T01:08:04;100678.91;;;15.09;87.66
8699;BME280;4386;51.236;6.742;2022-10-16T01:09:14;100688.72;;;15.08;87.51
8699;BME280;4386;51.236;6.742;2022-10-16T01:10:27;100691.41;;;15.08;87.37
8699;BME280;4386;51.236;6.742;2022-10-16T01:11:38;100692.41;;;15.07;87.61
8699;BME280;4386;51.236;6.742;2022-10-16T01:12:47;100692.41;;;15.07;87.45
8699;BME280;4386;51.236;6.742;2022-10-16T01:13:54;100695.22;;;15.06;87.56
8699;BME280;4386;51.236;6.742;2022-10-16T01:14:59;100694.38;;;15.05;87.51
8699;BME280;4386;51.236;6.742;2022-10-16T01:16:06;100700.41;;;15.07;87.64
8699;BME280;4386;51.236;6.742;2022-10-16T01:17:15;100711.22;;;15.06;87.77
8699;BME280;4386;51.236;6.742;2022-10-16T01:18:25;100699.72;;;15.05;87.72
8699;BME280;4386;51.236;6.742;2022-10-16T01:19:44;100707.72;;;15.05;87.50
8699;BME280;4386;51.236;6.742;2022-10-16T01:20:52;100708.56;;;15.06;87.55
8699;BME280;4386;51.236;6.742;2022-10-16T01:21:58;100715.72;;;15.05;87.50
8699;BME280;4386;51.236;6.742;2022-10-16T01:23:16;100710.56;;;15.04;87.62
8699;BME280;4386;51.236;6.742;2022-10-16T01:24:31;100702.53;;;15.04;87.53
8699;BME280;4386;51.236;6.742;2022-10-16T01:25:53;100709.72;;;15.03;87.65
8699;BME280;4386;51.236;6.742;2022-10-16T01:27:06;100705.34;;;15.02;87.58
8699;BME280;4386;51.236;6.742;2022-10-16T01:28:10;100710.69;;;15.02;87.48
8699;BME280;4386;51.236;6.742;2022-10-16T01:29:18;100702.84;;;15.01;87.61
8699;BME280;4386;51.236;6.742;2022-10-16T01:30:24;100709.03;;;15.01;87.80
8699;BME280;4386;51.236;6.742;2022-10-16T01:31:31;100706.34;;;15.01;87.78
8699;BME280;4386;51.236;6.742;2022-10-16T01:32:38;100709.03;;;15.01;87.92
8699;BME280;4386;51.236;6.742;2022-10-16T01:33:45;100708.72;;;15.04;87.51
8699;BME280;4386;51.236;6.742;2022-10-16T01:34:51;100698.06;;;15.04;87.74
8699;BME280;4386;51.236;6.742;2022-10-16T01:35:57;100695.22;;;15.06;87.66
8699;BME280;4386;51.236;6.742;2022-10-16T01:37:04;100697.75;;;15.07;87.85
8699;BME280;4386;51.236;6.742;2022-10-16T01:38:10;100694.25;;;15.07;87.67
8699;BME280;4386;51.236;6.742;2022-10-16T01:39:14;100696.06;;;15.06;87.73
8699;BME280;4386;51.236;6.742;2022-10-16T01:40:23;100698.72;;;15.06;87.68
8699;BME280;4386;51.236;6.742;2022-10-16T01:41:31;100689.03;;;15.05;87.85
8699;BME280;4386;51.236;6.742;2022-10-16T01:42:39;100696.91;;;15.07;87.70
8699;BME280;4386;51.236;6.742;2022-10-16T01:43:45;100695.09;;;15.07;87.80
8699;BME280;4386;51.236;6.742;2022-10-16T01:44:50;100692.25;;;15.09;87.77
8699;BME280;4386;51.236;6.742;2022-10-16T01:45:53;100695.63;;;15.11;87.72
8699;BME280;4386;51.236;6.742;2022-10-16T01:46:56;100695.63;;;15.11;87.53
8699;BME280;4386;51.236;6.742;2022-10-16T01:48:00;100700.78;;;15.12;87.70
8699;BME280;4386;51.236;6.742;2022-10-16T01:49:06;100696.47;;;15.11;87.72
8699;BME280;4386;51.236;6.742;2022-10-16T01:50:11;100702.50;;;15.13;87.81
8699;BME280;4386;51.236;6.742;2022-10-16T01:51:15;100696.31;;;15.13;87.72
8699;BME280;4386;51.236;6.742;2022-10-16T01:52:21;100705.16;;;15.13;87.77
8699;BME280;4386;51.236;6.742;2022-10-16T01:53:26;100700.66;;;15.14;87.60
8699;BME280;4386;51.236;6.742;2022-10-16T01:54:30;100706.97;;;15.13;87.66
8699;BME280;4386;51.236;6.742;2022-10-16T01:55:37;100706.13;;;15.12;87.64
8699;BME280;4386;51.236;6.742;2022-10-16T01:56:40;100705.28;;;15.12;87.61
8699;BME280;4386;51.236;6.742;2022-10-16T01:57:47;100707.81;;;15.13;87.78
8699;BME280;4386;51.236;6.742;2022-10-16T01:58:53;100706.84;;;15.15;87.73
8699;BME280;4386;51.236;6.742;2022-10-16T02:00:04;100708.66;;;15.14;87.70
8699;BME280;4386;51.236;6.742;2022-10-16T02:01:10;100703.34;;;15.14;87.49
8699;BME280;4386;51.236;6.742;2022-10-16T02:02:20;100701.50;;;15.15;87.38
8699;BME280;4386;51.236;6.742;2022-10-16T02:03:23;100700.66;;;15.14;87.48
8699;BME280;4386;51.236;6.742;2022-10-16T02:04:30;100699.81;;;15.13;87.61
8699;BME280;4386;51.236;6.742;2022-10-16T02:05:37;100693.63;;;15.13;87.53
8699;BME280;4386;51.236;6.742;2022-10-16T02:06:42;100696.31;;;15.13;87.51
8699;BME280;4386;51.236;6.742;2022-10-16T02:07:44;100686.47;;;15.13;87.58
8699;BME280;4386;51.236;6.742;2022-10-16T02:08:48;100693.50;;;15.15;87.54
8699;BME280;4386;51.236;6.742;2022-10-16T02:09:49;100702.31;;;15.15;87.64
8699;BME280;4386;51.236;6.742;2022-10-16T02:10:52;100702.19;;;15.17;87.49
8699;BME280;4386;51.236;6.742;2022-10-16T02:11:54;100708.19;;;15.19;87.45
8699;BME280;4386;51.236;6.742;2022-10-16T02:13:05;100715.09;;;15.21;87.54
8699;BME280;4386;51.236;6.742;2022-10-16T02:14:08;100716.94;;;15.21;87.33
8699;BME280;4386;51.236;6.742;2022-10-16T02:15:10;100715.09;;;15.21;87.48
8699;BME280;4386;51.236;6.742;2022-10-16T02:16:13;100709.59;;;15.23;87.41
8699;BME280;4386;51.236;6.742;2022-10-16T02:17:17;100710.31;;;15.25;87.39
8699;BME280;4386;51.236;6.742;2022-10-16T02:18:19;100713.94;;;15.24;87.59
8699;BME280;4386;51.236;6.742;2022-10-16T02:19:22;100712.25;;;15.23;87.31
8699;BME280;4386;51.236;6.742;2022-10-16T02:20:27;100714.81;;;15.24;87.37
8699;BME280;4386;51.236;6.742;2022-10-16T02:21:40;100718.31;;;15.25;87.36
8699;BME280;4386;51.236;6.742;2022-10-16T02:22:45;100720.97;;;15.25;87.23
8699;BME280;4386;51.236;6.742;2022-10-16T02:23:51;100716.47;;;15.25;87.22
8699;BME280;4386;51.236;6.742;2022-10-16T02:25:02;100722.66;;;15.26;87.00
8699;BME280;4386;51.236;6.742;2022-10-16T02:26:09;100716.47;;;15.25;87.27
8699;BME280;4386;51.236;6.742;2022-10-16T02:27:19;100720.13;;;15.24;87.11
8699;BME280;4386;51.236;6.742;2022-10-16T02:28:27;100715.66;;;15.25;87.24
8699;BME280;4386;51.236;6.742;2022-10-16T02:29:38;100720.13;;;15.24;87.13
8699;BME280;4386;51.236;6.742;2022-10-16T02:30:43;100724.63;;;15.24;87.20
8699;BME280;4386;51.236;6.742;2022-10-16T02:31:50;100725.47;;;15.24;86.98
8699;BME280;4386;51.236;6.742;2022-10-16T02:32:53;100720.13;;;15.24;87.23
8699;BME280;4386;51.236;6.742;2022-10-16T02:33:58;100729.00;;;15.25;87.16
8699;BME280;4386;51.236;6.742;2022-10-16T02:35:01;100727.97;;;15.26;87.03
8699;BME280;4386;51.236;6.742;2022-10-16T02:36:05;100731.50;;;15.26;87.20
8699;BME280;4386;51.236;6.742;2022-10-16T02:37:07;100724.34;;;15.27;86.89
8699;BME280;4386;51.236;6.742;2022-10-16T02:38:12;100719.00;;;15.27;86.84
8699;BME280;4386;51.236;6.742;2022-10-16T02:39:16;100725.31;;;15.26;86.80
8699;BME280;4386;51.236;6.742;2022-10-16T02:40:20;100727.84;;;15.27;86.96
8699;BME280;4386;51.236;6.742;2022-10-16T02:41:26;100724.34;;;15.27;86.82
8699;BME280;4386;51.236;6.742;2022-10-16T02:42:29;100721.66;;;15.27;86.99
8699;BME280;4386;51.236;6.742;2022-10-16T02:43:35;100717.31;;;15.26;86.69
8699;BME280;4386;51.236;6.742;2022-10-16T02:44:37;100732.34;;;15.27;86.58
8699;BME280;4386;51.236;6.742;2022-10-16T02:45:39;100722.66;;;15.26;86.71
8699;BME280;4386;51.236;6.742;2022-10-16T02:46:41;100729.66;;;15.27;86.71
8699;BME280;4386;51.236;6.742;2022-10-16T02:47:43;100719.84;;;15.27;86.72
8699;BME280;4386;51.236;6.742;2022-10-16T02:48:46;100726.84;;;15.28;86.71
8699;BME280;4386;51.236;6.742;2022-10-16T02:49:48;100720.69;;;15.28;86.54
8699;BME280;4386;51.236;6.742;2022-10-16T02:50:50;100720.69;;;15.28;86.45
8699;BME280;4386;51.236;6.742;2022-10-16T02:51:52;100718.00;;;15.28;86.53
8699;BME280;4386;51.236;6.742;2022-10-16T02:52:54;100714.50;;;15.27;86.37
8699;BME280;4386;51.236;6.742;2022-10-16T02:53:59;100722.34;;;15.29;86.31
8699;BME280;4386;51.236;6.742;2022-10-16T02:55:02;100721.50;;;15.28;86.22
8699;BME280;4386;51.236;6.742;2022-10-16T02:56:04;100725.19;;;15.27;86.31
8699;BME280;4386;51.236;6.742;2022-10-16T02:57:07;100725.19;;;15.27;86.19
8699;BME280;4386;51.236;6.742;2022-10-16T02:58:08;100724.34;;;15.27;86.05
8699;BME280;4386;51.236;6.742;2022-10-16T02:59:12;100735.00;;;15.27;86.30
8699;BME280;4386;51.236;6.742;2022-10-16T03:00:16;100719.00;;;15.27;86.41
8699;BME280;4386;51.236;6.742;2022-10-16T03:01:19;100722.66;;;15.26;86.28
8699;BME280;4386;51.236;6.742;2022-10-16T03:02:20;100726.31;;;15.25;86.24
8699;BME280;4386;51.236;6.742;2022-10-16T03:03:23;100719.28;;;15.24;86.28
8699;BME280;4386;51.236;6.742;2022-10-16T03:04:25;100722.94;;;15.23;86.29
8699;BME280;4386;51.236;6.742;2022-10-16T03:05:27;100721.25;;;15.22;85.94
8699;BME280;4386;51.236;6.742;2022-10-16T03:06:29;100732.94;;;15.21;86.05
8699;BME280;4386;51.236;6.742;2022-10-16T03:07:32;100730.28;;;15.21;86.12
8699;BME280;4386;51.236;6.742;2022-10-16T03:08:33;100726.91;;;15.19;85.94
8699;BME280;4386;51.236;6.742;2022-10-16T03:09:36;100730.56;;;15.18;85.90
8699;BME280;4386;51.236;6.742;2022-10-16T03:10:39;100719.91;;;15.18;85.87
8699;BME280;4386;51.236;6.742;2022-10-16T03:11:41;100724.53;;;15.16;86.03
8699;BME280;4386;51.236;6.742;2022-10-16T03:12:43;100722.88;;;15.15;86.18
8699;BME280;4386;51.236;6.742;2022-10-16T03:13:45;100722.03;;;15.14;86.12
8699;BME280;4386;51.236;6.742;2022-10-16T03:14:48;100718.50;;;15.13;86.05
8699;BME280;4386;51.236;6.742;2022-10-16T03:15:51;100722.16;;;15.12;86.03
8699;BME280;4386;51.236;6.742;2022-10-16T03:16:52;100720.50;;;15.11;86.01
8699;BME280;4386;51.236;6.742;2022-10-16T03:17:57;100713.47;;;15.10;85.98
8699;BME280;4386;51.236;6.742;2022-10-16T03:18:59;100717.81;;;15.11;85.98
8699;BME280;4386;51.236;6.742;2022-10-16T03:20:01;100719.78;;;15.09;86.02
8699;BME280;4386;51.236;6.742;2022-10-16T03:21:04;100715.44;;;15.08;86.23
8699;BME280;4386;51.236;6.742;2022-10-16T03:22:06;100722.47;;;15.09;86.34
8699;BME280;4386;51.236;6.742;2022-10-16T03:23:08;100715.44;;;15.08;86.18
8699;BME280;4386;51.236;6.742;2022-10-16T03:24:11;100718.25;;;15.07;85.90
8699;BME280;4386;51.236;6.742;2022-10-16T03:25:12;100718.25;;;15.07;86.15
8699;BME280;4386;51.236;6.742;2022-10-16T03:26:15;100718.25;;;15.07;85.92
8699;BME280;4386;51.236;6.742;2022-10-16T03:27:16;100716.56;;;15.06;86.14
8699;BME280;4386;51.236;6.742;2022-10-16T03:28:19;100715.72;;;15.05;85.94
8699;BME280;4386;51.236;6.742;2022-10-16T03:29:21;100717.41;;;15.06;85.99
8699;BME280;4386;51.236;6.742;2022-10-16T03:30:25;100717.59;;;15.05;86.06
8699;BME280;4386;51.236;6.742;2022-10-16T03:31:26;100720.25;;;15.05;86.00
8699;BME280;4386;51.236;6.742;2022-10-16T03:32:29;100719.41;;;15.04;85.95
8699;BME280;4386;51.236;6.742;2022-10-16T03:33:30;100723.91;;;15.04;85.93
8699;BME280;4386;51.236;6.742;2022-10-16T03:34:33;100731.91;;;15.04;86.03
8699;BME280;4386;51.236;6.742;2022-10-16T03:35:35;100721.38;;;15.02;85.96
8699;BME280;4386;51.236;6.742;2022-10-16T03:36:37;100733.72;;;15.03;86.08
8699;BME280;4386;51.236;6.742;2022-10-16T03:37:40;100735.72;;;15.01;85.78
8699;BME280;4386;51.236;6.742;2022-10-16T03:38:41;100734.03;;;15.00;85.89
8699;BME280;4386;51.236;6.742;2022-10-16T03:39:44;100737.69;;;14.99;85.76
8699;BME280;4386;51.236;6.742;2022-10-16T03:40:45;100733.19;;;15.00;86.08
8699;BME280;4386;51.236;6.742;2022-10-16T03:41:48;100725.34;;;14.98;85.90
8699;BME280;4386;51.236;6.742;2022-10-16T03:42:50;100729.84;;;14.98;85.87
8699;BME280;4386;51.236;6.742;2022-10-16T03:43:52;100731.66;;;14.97;85.79
8699;BME280;4386;51.236;6.742;2022-10-16T03:44:54;100730.94;;;14.95;86.18
8699;BME280;4386;51.236;6.742;2022-10-16T03:45:58;100735.59;;;14.93;85.98
8699;BME280;4386;51.236;6.742;2022-10-16T03:46:59;100737.44;;;14.93;85.86
8699;BME280;4386;51.236;6.742;2022-10-16T03:48:02;100732.25;;;14.91;86.10
8699;BME280;4386;51.236;6.742;2022-10-16T03:49:04;100733.34;;;14.89;85.79
8699;BME280;4386;51.236;6.742;2022-10-16T03:50:10;100728.19;;;14.87;85.71
8699;BME280;4386;51.236;6.742;2022-10-16T03:51:11;100732.69;;;14.87;85.70
8699;BME280;4386;51.236;6.742;2022-10-16T03:52:14;100738.31;;;14.84;85.90
8699;BME280;4386;51.236;6.742;2022-10-16T03:53:16;100737.47;;;14.83;85.99
8699;BME280;4386;51.236;6.742;2022-10-16T03:54:18;100734.13;;;14.81;86.03
8699;BME280;4386;51.236;6.742;2022-10-16T03:55:20;100741.41;;;14.79;85.84
8699;BME280;4386;51.236;6.742;2022-10-16T03:56:22;100738.91;;;14.78;85.91
8699;BME280;4386;51.236;6.742;2022-10-16T03:57:24;100733.69;;;14.76;85.90
8699;BME280;4386;51.236;6.742;2022-10-16T03:58:27;100742.72;;;14.75;86.17
8699;BME280;4386;51.236;6.742;2022-10-16T03:59:29;100740.19;;;14.74;86.12
8699;BME280;4386;51.236;6.742;2022-10-16T04:00:31;100733.31;;;14.71;86.16
8699;BME280;4386;51.236;6.742;2022-10-16T04:01:34;100730.78;;;14.70;85.71
8699;BME280;4386;51.236;6.742;2022-10-16T04:02:37;100729.94;;;14.69;86.00
8699;BME280;4386;51.236;6.742;2022-10-16T04:03:38;100738.94;;;14.68;86.08
8699;BME280;4386;51.236;6.742;2022-10-16T04:04:41;100739.22;;;14.65;85.90
8699;BME280;4386;51.236;6.742;2022-10-16T04:05:42;100738.50;;;14.63;86.13
8699;BME280;4386;51.236;6.742;2022-10-16T04:06:45;100744.84;;;14.62;86.13
8699;BME280;4386;51.236;6.742;2022-10-16T04:07:46;100745.84;;;14.61;85.91
8699;BME280;4386;51.236;6.742;2022-10-16T04:08:49;100748.50;;;14.61;86.21
8699;BME280;4386;51.236;6.742;2022-10-16T04:09:50;100749.47;;;14.60;86.05
8699;BME280;4386;51.236;6.742;2022-10-16T04:10:53;100754.13;;;14.58;86.16
8699;BME280;4386;51.236;6.742;2022-10-16T04:11:55;100754.13;;;14.58;86.29
8699;BME280;4386;51.236;6.742;2022-10-16T04:12:57;100750.63;;;14.57;86.40
8699;BME280;4386;51.236;6.742;2022-10-16T04:13:59;100747.09;;;14.57;86.14
8699;BME280;4386;51.236;6.742;2022-10-16T04:15:02;100755.09;;;14.57;86.32
8699;BME280;4386;51.236;6.742;2022-10-16T04:16:04;100756.09;;;14.56;86.09
8699;BME280;4386;51.236;6.742;2022-10-16T04:17:08;100754.41;;;14.55;86.39
8699;BME280;4386;51.236;6.742;2022-10-16T04:18:10;100760.72;;;14.54;86.32
8699;BME280;4386;51.236;6.742;2022-10-16T04:19:12;100758.22;;;14.52;86.52
8699;BME280;4386;51.236;6.742;2022-10-16T04:22:36;100762.00;;;14.50;86.36
8699;BME280;4386;51.236;6.742;2022-10-16T04:23:38;100771.00;;;14.49;86.56
8699;BME280;4386;51.236;6.742;2022-10-16T04:24:40;100776.34;;;14.49;86.38
8699;BME280;4386;51.236;6.742;2022-10-16T04:25:42;100769.31;;;14.48;86.51
8699;BME280;4386;51.236;6.742;2022-10-16T04:26:44;100779.00;;;14.49;86.48
8699;BME280;4386;51.236;6.742;2022-10-16T04:27:46;100773.66;;;14.49;86.64
8699;BME280;4386;51.236;6.742;2022-10-16T04:28:48;100774.66;;;14.48;86.60
8699;BME280;4386;51.236;6.742;2022-10-16T04:29:51;100786.28;;;14.47;86.56
8699;BME280;4386;51.236;6.742;2022-10-16T04:30:52;100787.13;;;14.47;86.59
8699;BME280;4386;51.236;6.742;2022-10-16T04:31:55;100793.44;;;14.46;86.46
8699;BME280;4386;51.236;6.742;2022-10-16T04:32:58;100790.66;;;14.48;86.76
8699;BME280;4386;51.236;6.742;2022-10-16T04:34:01;100785.31;;;14.48;86.70
8699;BME280;4386;51.236;6.742;2022-10-16T04:35:03;100790.66;;;14.48;86.75
8699;BME280;4386;51.236;6.742;2022-10-16T04:36:06;100787.00;;;14.49;86.40
8699;BME280;4386;51.236;6.742;2022-10-16T04:37:08;100780.94;;;14.47;86.59
8699;BME280;4386;51.236;6.742;2022-10-16T04:38:10;100786.28;;;14.47;86.53
8699;BME280;4386;51.236;6.742;2022-10-16T04:39:12;100781.78;;;14.47;86.61
8699;BME280;4386;51.236;6.742;2022-10-16T04:40:14;100773.97;;;14.46;86.49
8699;BME280;4386;51.236;6.742;2022-10-16T04:41:17;100769.59;;;14.45;86.70
8699;BME280;4386;51.236;6.742;2022-10-16T04:42:18;100768.75;;;14.44;86.63
8699;BME280;4386;51.236;6.742;2022-10-16T04:43:21;100765.25;;;14.44;86.80
8699;BME280;4386;51.236;6.742;2022-10-16T04:44:23;100763.41;;;14.44;86.35
8699;BME280;4386;51.236;6.742;2022-10-16T04:45:25;100761.59;;;14.45;86.42
8699;BME280;4386;51.236;6.742;2022-10-16T04:46:27;100767.91;;;14.44;86.72
8699;BME280;4386;51.236;6.742;2022-10-16T04:47:29;100774.94;;;14.45;86.69
8699;BME280;4386;51.236;6.742;2022-10-16T04:48:32;100781.97;;;14.46;86.57
8699;BME280;4386;51.236;6.742;2022-10-16T04:49:35;100787.28;;;14.46;86.79
8699;BME280;4386;51.236;6.742;2022-10-16T04:50:37;100789.97;;;14.46;86.72
8699;BME280;4386;51.236;6.742;2022-10-16T04:51:39;100793.44;;;14.46;86.64
8699;BME280;4386;51.236;6.742;2022-10-16T04:52:41;100796.09;;;14.46;86.63
8699;BME280;4386;51.236;6.742;2022-10-16T04:53:43;100793.44;;;14.46;86.89
8699;BME280;4386;51.236;6.742;2022-10-16T04:54:45;100799.50;;;14.48;86.46
8699;BME280;4386;51.236;6.742;2022-10-16T04:55:47;100799.63;;;14.47;86.62
8699;BME280;4386;51.236;6.742;2022-10-16T04:56:49;100803.97;;;14.48;86.83
8699;BME280;4386;51.236;6.742;2022-10-16T04:57:53;100801.31;;;14.48;86.68
8699;BME280;4386;51.236;6.742;2022-10-16T04:58:54;100804.66;;;14.50;86.53
8699;BME280;4386;51.236;6.742;2022-10-16T04:59:57;100806.50;;;14.49;86.55
8699;BME280;4386;51.236;6.742;2022-10-16T05:00:58;100802.00;;;14.50;86.71
8699;BME280;4386;51.236;6.742;2022-10-16T05:02:01;100809.19;;;14.49;86.59
8699;BME280;4386;51.236;6.742;2022-10-16T05:03:02;100810.84;;;14.50;86.69
8699;BME280;4386;51.236;6.742;2022-10-16T05:04:10;100810.00;;;14.50;86.61
8699;BME280;4386;51.236;6.742;2022-10-16T05:05:11;100804.53;;;14.51;86.53
8699;BME280;4386;51.236;6.742;2022-10-16T05:06:15;100806.34;;;14.51;86.44
8699;BME280;4386;51.236;6.742;2022-10-16T05:07:17;100810.84;;;14.50;86.57
8699;BME280;4386;51.236;6.742;2022-10-16T05:08:20;100803.00;;;14.49;86.63
8699;BME280;4386;51.236;6.742;2022-10-16T05:09:22;100809.31;;;14.48;86.49
8699;BME280;4386;51.236;6.742;2022-10-16T05:10:24;100814.66;;;14.48;86.52
8699;BME280;4386;51.236;6.742;2022-10-16T05:11:26;100809.31;;;14.48;86.77
8699;BME280;4386;51.236;6.742;2022-10-16T05:12:28;100804.94;;;14.47;86.32
8699;BME280;4386;51.236;6.742;2022-10-16T05:13:30;100811.97;;;14.48;86.42
8699;BME280;4386;51.236;6.742;2022-10-16T05:14:33;100813.97;;;14.46;86.43
8699;BME280;4386;51.236;6.742;2022-10-16T05:15:34;100812.09;;;14.46;86.56
8699;BME280;4386;51.236;6.742;2022-10-16T05:16:37;100817.44;;;14.46;86.53
8699;BME280;4386;51.236;6.742;2022-10-16T05:17:38;100818.44;;;14.45;86.44
8699;BME280;4386;51.236;6.742;2022-10-16T05:18:45;100829.97;;;14.46;86.35
8699;BME280;4386;51.236;6.742;2022-10-16T05:19:48;100829.13;;;14.45;86.40
8699;BME280;4386;51.236;6.742;2022-10-16T05:20:50;100826.56;;;14.44;86.26
8699;BME280;4386;51.236;6.742;2022-10-16T05:21:52;100826.56;;;14.44;86.63
8699;BME280;4386;51.236;6.742;2022-10-16T05:22:55;100819.56;;;14.43;86.51
8699;BME280;4386;51.236;6.742;2022-10-16T05:23:56;100831.22;;;14.42;86.45
8699;BME280;4386;51.236;6.742;2022-10-16T05:24:59;100828.56;;;14.42;86.69
8699;BME280;4386;51.236;6.742;2022-10-16T05:26:00;100834.84;;;14.41;86.69
8699;BME280;4386;51.236;6.742;2022-10-16T05:27:03;100832.19;;;14.41;86.49
8699;BME280;4386;51.236;6.742;2022-10-16T05:28:04;100839.22;;;14.42;86.41
8699;BME280;4386;51.236;6.742;2022-10-16T05:29:07;100827.84;;;14.40;86.55
8699;BME280;4386;51.236;6.742;2022-10-16T05:30:09;100837.53;;;14.41;86.52
8699;BME280;4386;51.236;6.742;2022-10-16T05:31:13;100839.22;;;14.42;86.60
8699;BME280;4386;51.236;6.742;2022-10-16T05:32:16;100826.84;;;14.41;86.58
8699;BME280;4386;51.236;6.742;2022-10-16T05:33:19;100823.22;;;14.42;86.62
8699;BME280;4386;51.236;6.742;2022-10-16T05:34:21;100835.84;;;14.40;86.64
8699;BME280;4386;51.236;6.742;2022-10-16T05:35:25;100834.84;;;14.41;86.81
8699;BME280;4386;51.236;6.742;2022-10-16T05:36:27;100837.53;;;14.41;86.42
8699;BME280;4386;51.236;6.742;2022-10-16T05:37:30;100839.22;;;14.42;86.68
8699;BME280;4386;51.236;6.742;2022-10-16T05:38:31;100845.41;;;14.42;86.83
8699;BME280;4386;51.236;6.742;2022-10-16T05:39:34;100840.06;;;14.42;86.94
8699;BME280;4386;51.236;6.742;2022-10-16T05:40:35;100845.41;;;14.42;86.75
8699;BME280;4386;51.236;6.742;2022-10-16T05:41:38;100838.25;;;14.43;86.66
8699;BME280;4386;51.236;6.742;2022-10-16T05:42:40;100839.22;;;14.42;86.63
8699;BME280;4386;51.236;6.742;2022-10-16T05:43:43;100844.56;;;14.42;86.60
8699;BME280;4386;51.236;6.742;2022-10-16T05:44:44;100842.84;;;14.41;86.61